Time;durP1;ratioP1;P1;durP2;ratioP2;P2;SDS_P1;SDS_P2;PMS_P1;PMS_P2;Temp;Humidity;BMP_temperature;BMP_pressure;BME280_temperature;BME280_humidity;BME280_pressure;Samples;Min_cycle;Max_cycle;Signal;HPM_P1;HPM_P2
2023/09/25 00:02:00;;;;;;;11.82;8.73;;;;;;;21.23;100.00;98269.41;5050478;28;20299;-57
2023/09/25 00:04:28;;;;;;;11.13;9.25;;;;;;;21.39;100.00;98301.69;5050545;28;20185;-57
2023/09/25 00:06:53;;;;;;;10.13;9.20;;;;;;;21.42;100.00;98290.00;5050344;28;20231;-57
2023/09/25 00:09:19;;;;;;;14.18;9.95;;;;;;;21.48;100.00;98315.63;5050435;28;20185;-57
2023/09/25 00:11:44;;;;;;;11.48;10.27;;;;;;;21.26;100.00;98288.28;5050363;28;20173;-57
2023/09/25 00:14:10;;;;;;;12.68;11.10;;;;;;;21.22;100.00;98291.47;5050064;28;20228;-57
2023/09/25 00:16:35;;;;;;;13.32;11.32;;;;;;;21.13;100.00;98300.38;5050106;28;20220;-57
2023/09/25 00:19:01;;;;;;;12.77;11.32;;;;;;;21.17;100.00;98312.22;5050406;28;20283;-57
2023/09/25 00:21:26;;;;;;;13.27;11.88;;;;;;;21.21;100.00;98314.31;5050195;28;20217;-57
2023/09/25 00:23:51;;;;;;;14.13;11.55;;;;;;;21.09;100.00;98293.84;5050821;28;20185;-57
2023/09/25 00:26:17;;;;;;;17.45;12.65;;;;;;;21.16;100.00;98313.22;5096965;28;20726;-57
2023/09/25 00:28:42;;;;;;;14.48;12.77;;;;;;;20.92;100.00;98266.00;5113098;28;20206;-57
2023/09/25 00:31:09;;;;;;;16.27;13.18;;;;;;;21.01;100.00;98271.03;5069801;28;20185;-57
2023/09/25 00:33:34;;;;;;;15.45;13.27;;;;;;;21.36;100.00;98309.13;5069849;28;20197;-57
2023/09/25 00:36:00;;;;;;;16.50;14.73;;;;;;;21.41;100.00;98312.06;5069670;28;20196;-56
2023/09/25 00:38:25;;;;;;;20.38;15.32;;;;;;;21.48;100.00;98313.00;5069625;28;20176;-56
2023/09/25 00:40:51;;;;;;;17.48;15.77;;;;;;;21.63;100.00;98317.31;5069720;28;20503;-57
2023/09/25 00:43:17;;;;;;;19.25;15.48;;;;;;;21.68;100.00;98319.47;5070125;28;20185;-57
2023/09/25 00:45:44;;;;;;;23.15;17.42;;;;;;;21.55;100.00;98319.19;5069644;28;20188;-57
2023/09/25 00:48:26;;;;;;;24.73;19.83;;;;;;;21.52;100.00;98317.75;5069628;28;20203;-57
2023/09/25 00:50:53;;;;;;;30.85;23.27;;;;;;;21.51;100.00;98318.72;5069558;28;20196;-57
2023/09/25 00:53:19;;;;;;;31.95;25.15;;;;;;;21.48;100.00;98305.91;5069470;28;20194;-57
2023/09/25 00:55:47;;;;;;;35.95;27.20;;;;;;;21.08;100.00;98277.22;5069538;28;20180;-57
2023/09/25 00:58:12;;;;;;;35.42;25.67;;;;;;;21.11;100.00;98273.44;5069397;28;20548;-57
2023/09/25 01:00:38;;;;;;;32.67;24.75;;;;;;;21.25;100.00;98293.72;5029461;28;20234;-57
2023/09/25 01:03:04;;;;;;;32.05;25.48;;;;;;;21.38;100.00;98307.97;5065130;28;20264;-57
2023/09/25 01:05:32;;;;;;;33.95;26.13;;;;;;;21.36;100.00;98299.44;5069244;28;20656;-57
2023/09/25 01:07:57;;;;;;;37.35;27.92;;;;;;;21.24;100.00;98273.66;5069242;28;20195;-57
2023/09/25 01:10:23;;;;;;;36.72;27.60;;;;;;;21.47;100.00;98306.91;5069065;28;20184;-57
2023/09/25 01:12:49;;;;;;;32.97;26.42;;;;;;;21.29;100.00;98273.97;5068629;28;20565;-56
2023/09/25 01:15:15;;;;;;;34.45;26.25;;;;;;;21.34;100.00;98297.97;5068358;28;20732;-56
2023/09/25 01:17:41;;;;;;;32.45;26.48;;;;;;;21.39;100.00;98295.63;5068849;28;20180;-57
2023/09/25 01:20:13;;;;;;;33.03;25.40;;;;;;;21.31;100.00;98288.59;5068791;28;20659;-57
2023/09/25 01:22:44;;;;;;;32.72;24.85;;;;;;;21.32;100.00;98305.22;5069006;28;20215;-57
2023/09/25 01:25:12;;;;;;;35.80;27.20;;;;;;;21.28;100.00;98290.75;5068796;28;20181;-57
2023/09/25 01:27:42;;;;;;;36.55;26.27;;;;;;;21.36;100.00;98311.75;5068800;28;20338;-57
2023/09/25 01:30:11;;;;;;;37.67;27.10;;;;;;;21.39;100.00;98317.47;5068903;28;20185;-57
2023/09/25 01:32:39;;;;;;;31.88;25.13;;;;;;;21.49;100.00;98306.72;5108312;28;20191;-57
2023/09/25 01:35:08;;;;;;;31.15;25.00;;;;;;;21.56;100.00;98328.75;5111873;28;20179;-57
2023/09/25 01:37:34;;;;;;;31.92;26.33;;;;;;;21.34;100.00;98308.50;5111806;28;20171;-57
2023/09/25 01:39:59;;;;;;;30.25;24.85;;;;;;;21.24;100.00;98313.16;5112273;28;20299;-57
2023/09/25 01:42:25;;;;;;;39.03;29.20;;;;;;;21.25;100.00;98312.16;5112007;28;20196;-57
2023/09/25 01:44:50;;;;;;;42.58;29.55;;;;;;;21.41;100.00;98325.22;5111639;28;20171;-57
2023/09/25 01:47:17;;;;;;;49.05;33.58;;;;;;;21.38;100.00;98304.53;5111826;28;20194;-57
2023/09/25 01:49:43;;;;;;;47.55;34.42;;;;;;;21.41;100.00;98315.53;5111951;28;20182;-57
2023/09/25 01:52:08;;;;;;;50.42;34.70;;;;;;;21.31;100.00;98314.09;5111794;28;20167;-57
2023/09/25 01:54:35;;;;;;;57.83;35.22;;;;;;;21.16;100.00;98300.84;5111787;28;20243;-57
2023/09/25 01:57:01;;;;;;;51.28;36.60;;;;;;;21.23;100.00;98312.34;5112131;28;20185;-57
2023/09/25 01:59:27;;;;;;;53.83;35.30;;;;;;;21.36;100.00;98322.28;5111844;28;20171;-57
2023/09/25 02:01:52;;;;;;;48.67;32.13;;;;;;;21.43;100.00;98325.84;5111773;28;20171;-57
2023/09/25 02:04:17;;;;;;;48.67;32.55;;;;;;;21.48;100.00;98319.09;5111724;28;20175;-57
2023/09/25 02:06:43;;;;;;;41.60;28.33;;;;;;;21.54;100.00;98342.09;5111427;28;20199;-56
2023/09/25 02:09:10;;;;;;;39.45;28.85;;;;;;;21.33;100.00;98312.13;5067566;28;20598;-57
2023/09/25 02:11:36;;;;;;;46.58;31.73;;;;;;;21.22;100.00;98315.16;5068496;28;20191;-57
2023/09/25 02:14:01;;;;;;;43.38;30.05;;;;;;;20.98;100.00;98310.03;5068408;28;20199;-57
2023/09/25 02:16:27;;;;;;;42.42;29.48;;;;;;;21.14;100.00;98344.13;5068359;28;20310;-57
2023/09/25 02:18:52;;;;;;;43.65;30.48;;;;;;;20.88;100.00;98304.13;5068542;28;20575;-57
2023/09/25 02:21:17;;;;;;;47.42;31.63;;;;;;;21.04;100.00;98339.06;5068184;28;20260;-57
2023/09/25 02:23:43;;;;;;;47.25;31.08;;;;;;;20.92;100.00;98314.16;5068289;28;20180;-57
2023/09/25 02:26:08;;;;;;;50.20;32.88;;;;;;;21.05;100.00;98329.38;5071448;28;20208;-57
2023/09/25 02:28:33;;;;;;;44.10;31.48;;;;;;;21.03;100.00;98307.69;5072326;28;20405;-58
2023/09/25 02:30:59;;;;;;;48.60;32.65;;;;;;;21.26;100.00;98329.56;5072319;28;20191;-58
2023/09/25 02:33:24;;;;;;;43.67;28.20;;;;;;;21.43;100.00;98355.66;5072739;28;20176;-58
2023/09/25 02:35:50;;;;;;;38.08;26.23;;;;;;;21.27;100.00;98324.16;5072381;28;20599;-57
2023/09/25 02:38:15;;;;;;;38.90;26.63;;;;;;;21.56;100.00;98358.50;5072143;28;20280;-57
2023/09/25 02:40:40;;;;;;;36.47;27.60;;;;;;;21.46;100.00;98338.69;5103253;28;20179;-57
2023/09/25 02:43:06;;;;;;;31.65;25.17;;;;;;;21.58;100.00;98355.72;5115084;28;20177;-57
2023/09/25 02:45:32;;;;;;;34.22;24.98;;;;;;;21.44;100.00;98330.94;5114967;28;20710;-57
2023/09/25 02:47:57;;;;;;;34.03;25.52;;;;;;;21.42;100.00;98317.16;5114975;28;20175;-57
2023/09/25 02:50:22;;;;;;;38.50;25.48;;;;;;;21.69;100.00;98356.16;5115050;28;20262;-57
2023/09/25 02:52:48;;;;;;;36.00;24.60;;;;;;;21.49;100.00;98348.84;5051749;28;20243;-57
2023/09/25 02:55:13;;;;;;;33.22;24.15;;;;;;;21.33;100.00;98320.81;5052117;28;20197;-57
2023/09/25 02:57:39;;;;;;;34.55;24.52;;;;;;;21.42;100.00;98326.84;5051740;28;20276;-57
2023/09/25 03:00:11;;;;;;;35.72;25.88;;;;;;;21.68;100.00;98364.25;5051755;28;20632;-57
2023/09/25 03:02:37;;;;;;;32.30;23.95;;;;;;;21.50;100.00;98334.72;5051692;28;20231;-57
2023/09/25 03:05:05;;;;;;;35.38;25.33;;;;;;;21.68;100.00;98353.72;5051680;28;20204;-57
2023/09/25 03:07:30;;;;;;;29.90;23.27;;;;;;;21.61;100.00;98350.13;5051627;28;20219;-58
2023/09/25 03:09:56;;;;;;;35.63;23.90;;;;;;;21.68;100.00;98370.31;5051777;28;20177;-57
2023/09/25 03:12:22;;;;;;;34.38;24.38;;;;;;;21.47;100.00;98342.94;5051417;28;20181;-57
2023/09/25 03:14:47;;;;;;;35.53;24.83;;;;;;;21.70;100.00;98385.94;5051579;28;20298;-57
2023/09/25 03:17:12;;;;;;;36.97;25.23;;;;;;;21.72;100.00;98383.94;5051477;28;20289;-57
2023/09/25 03:19:38;;;;;;;30.90;24.55;;;;;;;21.74;100.00;98382.78;5051389;28;20300;-57
2023/09/25 03:22:04;;;;;;;29.02;22.77;;;;;;;21.75;100.00;98387.06;5051287;28;20568;-57
2023/09/25 03:24:30;;;;;;;34.22;24.60;;;;;;;21.84;100.00;98382.53;5051197;28;20185;-57
2023/09/25 03:26:55;;;;;;;30.80;23.08;;;;;;;21.65;100.00;98354.00;5051104;28;20715;-58
2023/09/25 03:29:21;;;;;;;30.80;23.40;;;;;;;21.85;100.00;98394.75;5059556;28;20285;-57
2023/09/25 03:31:46;;;;;;;26.30;20.33;;;;;;;21.81;100.00;98391.66;5070781;28;20257;-57
2023/09/25 03:34:12;;;;;;;28.27;22.45;;;;;;;21.67;100.00;98384.47;5070841;28;20218;-57
2023/09/25 03:36:37;;;;;;;29.48;23.67;;;;;;;21.54;100.00;98362.31;5070347;28;20187;-57
2023/09/25 03:39:03;;;;;;;30.52;22.38;;;;;;;21.80;100.00;98402.34;5070796;28;20322;-57
2023/09/25 03:41:28;;;;;;;28.92;22.20;;;;;;;21.64;100.00;98383.97;5070744;28;20658;-57
2023/09/25 03:43:53;;;;;;;30.33;23.27;;;;;;;21.42;100.00;98375.06;5070776;28;20219;-57
2023/09/25 03:46:19;;;;;;;33.47;23.02;;;;;;;21.57;100.00;98404.91;5070760;28;20315;-57
2023/09/25 03:48:45;;;;;;;32.63;23.75;;;;;;;21.46;100.00;98388.72;5070763;28;20270;-57
2023/09/25 03:51:11;;;;;;;31.63;24.25;;;;;;;21.41;100.00;98378.69;5070640;28;20328;-58
2023/09/25 03:53:36;;;;;;;30.10;25.05;;;;;;;21.47;100.00;98370.09;5070727;28;20739;-58
2023/09/25 03:56:02;;;;;;;33.38;25.05;;;;;;;21.45;100.00;98373.91;5070822;28;20613;-58
2023/09/25 03:58:27;;;;;;;32.55;26.00;;;;;;;21.57;100.00;98394.38;5070869;28;20192;-58
2023/09/25 04:00:53;;;;;;;37.97;26.38;;;;;;;21.61;100.00;98394.88;5070768;28;20173;-61
2023/09/25 04:03:19;;;;;;;33.92;26.35;;;;;;;21.64;100.00;98386.63;5101864;28;20187;-56
2023/09/25 04:05:45;;;;;;;35.05;26.15;;;;;;;21.54;100.00;98367.59;5113386;28;20617;-57
2023/09/25 04:08:10;;;;;;;31.65;24.55;;;;;;;21.75;100.00;98409.94;5113150;28;20556;-57
2023/09/25 04:10:35;;;;;;;32.75;24.17;;;;;;;21.67;100.00;98394.19;5113441;28;20197;-57
2023/09/25 04:13:01;;;;;;;36.85;25.67;;;;;;;21.72;100.00;98407.66;5113150;28;20233;-57
2023/09/25 04:15:26;;;;;;;33.05;25.48;;;;;;;21.52;100.00;98414.34;5113466;28;20641;-57
2023/09/25 04:17:57;;;;;;;34.38;26.40;;;;;;;21.42;100.00;98406.66;5113551;28;20210;-57
2023/09/25 04:20:25;;;;;;;32.28;25.52;;;;;;;21.21;100.00;98371.41;5113390;28;20179;-58
2023/09/25 04:22:52;;;;;;;35.85;26.13;;;;;;;21.11;100.00;98402.38;5113276;28;20549;-57
2023/09/25 04:25:19;;;;;;;34.42;28.30;;;;;;;20.95;100.00;98376.13;5113369;28;20187;-57
2023/09/25 04:27:50;;;;;;;36.08;26.98;;;;;;;21.22;100.00;98396.72;5113156;28;20203;-57
2023/09/25 04:30:17;;;;;;;38.20;27.63;;;;;;;21.22;100.00;98399.38;5113063;28;20163;-57
2023/09/25 04:32:44;;;;;;;38.17;27.35;;;;;;;21.13;100.00;98371.44;5113249;28;20175;-57
2023/09/25 04:35:12;;;;;;;32.92;26.27;;;;;;;21.33;100.00;98401.63;5112899;28;20688;-58
2023/09/25 04:37:38;;;;;;;34.40;25.70;;;;;;;21.34;100.00;98403.25;5112819;28;20175;-58
2023/09/25 04:40:21;;;;;;;36.10;26.83;;;;;;;21.33;100.00;98406.88;5112808;28;20645;-57
2023/09/25 04:42:47;;;;;;;32.10;25.50;;;;;;;21.26;100.00;98390.94;5112658;28;20237;-56
2023/09/25 04:45:18;;;;;;;33.47;25.63;;;;;;;21.35;100.00;98394.34;5112449;28;20254;-56
2023/09/25 04:47:47;;;;;;;33.30;25.35;;;;;;;21.25;100.00;98399.00;5112159;28;20707;-56
2023/09/25 04:50:12;;;;;;;35.42;25.48;;;;;;;21.22;100.00;98394.09;5111966;28;20689;-56
2023/09/25 04:52:42;;;;;;;29.50;24.90;;;;;;;21.46;100.00;98425.56;5112504;28;20201;-56
2023/09/25 04:55:10;;;;;;;29.95;23.80;;;;;;;21.41;100.00;98406.84;5112448;28;20207;-57
2023/09/25 04:57:38;;;;;;;31.80;24.58;;;;;;;21.61;100.00;98431.75;5112263;28;20597;-57
2023/09/25 05:00:17;;;;;;;32.88;25.20;;;;;;;21.61;100.00;98429.91;5112243;28;20536;-57
2023/09/25 05:02:45;;;;;;;32.75;25.38;;;;;;;21.49;100.00;98404.13;5112390;28;20179;-57
2023/09/25 05:05:13;;;;;;;35.90;26.58;;;;;;;21.56;100.00;98413.81;5112363;28;20171;-57
2023/09/25 05:07:42;;;;;;;32.10;25.77;;;;;;;21.72;100.00;98428.72;5111689;28;20215;-57
2023/09/25 05:10:13;;;;;;;31.88;25.45;;;;;;;21.78;100.00;98446.47;5112252;28;20163;-58
2023/09/25 05:12:39;;;;;;;33.63;26.60;;;;;;;21.66;100.00;98424.13;5112095;28;20191;-57
2023/09/25 05:15:07;;;;;;;33.88;24.95;;;;;;;21.60;100.00;98409.03;5112111;28;20175;-57
2023/09/25 05:17:34;;;;;;;32.85;26.00;;;;;;;21.86;100.00;98446.44;5111869;28;20179;-57
2023/09/25 05:20:00;;;;;;;36.00;25.73;;;;;;;21.98;100.00;98440.56;5111974;28;20657;-56
2023/09/25 05:22:25;;;;;;;34.25;25.67;;;;;;;22.05;100.00;98436.25;5111640;28;20208;-57
2023/09/25 05:24:51;;;;;;;28.65;24.30;;;;;;;21.94;100.00;98402.41;5111943;28;20219;-57
2023/09/25 05:27:16;;;;;;;31.58;24.25;;;;;;;22.20;100.00;98449.50;5111697;28;20210;-57
2023/09/25 05:29:45;;;;;;;33.67;25.77;;;;;;;22.23;100.00;98457.03;5111686;28;20175;-57
2023/09/25 05:32:10;;;;;;;31.08;25.15;;;;;;;22.02;100.00;98427.88;5111619;28;20175;-57
2023/09/25 05:34:36;;;;;;;33.58;25.50;;;;;;;22.15;100.00;98457.09;5111630;28;20251;-57
2023/09/25 05:37:01;;;;;;;34.75;25.52;;;;;;;22.12;100.00;98452.16;5111403;28;20594;-57
2023/09/25 05:39:28;;;;;;;32.00;24.20;;;;;;;22.07;100.00;98436.88;5111575;28;20286;-57
2023/09/25 05:41:53;;;;;;;34.05;22.65;;;;;;;22.21;100.00;98466.94;5111494;28;20632;-57
2023/09/25 05:44:19;;;;;;;24.52;19.35;;;;;;;21.97;100.00;98469.75;5111621;28;20262;-57
2023/09/25 05:46:44;;;;;;;20.90;17.98;;;;;;;21.72;100.00;98434.00;5111225;28;20289;-57
2023/09/25 05:49:09;;;;;;;18.90;15.13;;;;;;;21.75;100.00;98438.94;5068252;28;20192;-56
2023/09/25 05:51:35;;;;;;;18.67;14.18;;;;;;;21.78;100.00;98454.38;5068399;28;20192;-57
2023/09/25 05:54:00;;;;;;;17.77;12.98;;;;;;;21.84;100.00;98475.59;5068473;28;20591;-57
2023/09/25 05:56:28;;;;;;;13.48;11.35;;;;;;;21.69;100.00;98458.88;5068500;28;20327;-57
2023/09/25 05:58:54;;;;;;;16.95;10.73;;;;;;;21.76;100.00;98457.19;5068309;28;20222;-57
2023/09/25 06:01:19;;;;;;;19.52;12.02;;;;;;;21.97;100.00;98477.66;5068037;28;20211;-57
2023/09/25 06:03:44;;;;;;;13.65;11.68;;;;;;;21.98;100.00;98489.84;5068367;28;20179;-57
2023/09/25 06:06:10;;;;;;;14.57;11.82;;;;;;;21.78;100.00;98449.94;5068284;28;20204;-57
2023/09/25 06:08:35;;;;;;;18.67;12.18;;;;;;;21.98;100.00;98492.47;5068317;28;20649;-57
2023/09/25 06:11:02;;;;;;;19.40;14.82;;;;;;;21.74;100.00;98474.97;5068295;28;20181;-56
2023/09/25 06:13:30;;;;;;;15.98;13.68;;;;;;;21.69;100.00;98492.31;5068036;28;20243;-57
2023/09/25 06:15:56;;;;;;;21.13;13.43;;;;;;;21.67;100.00;98470.56;5068197;28;20176;-57
2023/09/25 06:18:21;;;;;;;14.27;11.38;;;;;;;21.83;100.00;98499.47;5068135;28;20346;-56
2023/09/25 06:20:48;;;;;;;16.73;12.32;;;;;;;21.98;100.00;98493.28;5068179;28;20275;-56
2023/09/25 06:23:14;;;;;;;14.88;10.95;;;;;;;22.05;100.00;98499.50;5068079;28;20650;-57
2023/09/25 06:25:42;;;;;;;17.60;11.15;;;;;;;22.10;100.00;98491.06;5073241;28;20272;-57
2023/09/25 06:28:08;;;;;;;15.05;10.10;;;;;;;21.89;100.00;98477.69;5111096;28;20244;-57
2023/09/25 06:30:34;;;;;;;10.27;7.78;;;;;;;21.90;100.00;98479.31;5111055;28;20187;-57
2023/09/25 06:32:59;;;;;;;9.35;8.35;;;;;;;21.92;100.00;98512.41;5111074;28;20198;-58
2023/09/25 06:35:25;;;;;;;9.73;8.70;;;;;;;21.99;100.00;98512.56;5111138;28;20589;-57
2023/09/25 06:37:51;;;;;;;12.43;8.38;;;;;;;21.89;100.00;98499.59;5110945;28;20194;-57
2023/09/25 06:40:19;;;;;;;10.68;7.38;;;;;;;21.79;100.00;98490.28;5110619;28;20291;-57
2023/09/25 06:42:45;;;;;;;8.52;7.57;;;;;;;22.03;100.00;98504.13;5110888;28;20171;-57
2023/09/25 06:45:11;;;;;;;11.27;9.32;;;;;;;21.74;100.00;98480.25;5110916;28;20171;-57
2023/09/25 06:47:36;;;;;;;10.88;8.45;;;;;;;21.66;100.00;98484.69;5110918;28;20286;-57
2023/09/25 06:50:03;;;;;;;10.38;8.00;;;;;;;21.93;100.00;98510.63;5110903;28;20210;-57
2023/09/25 06:52:28;;;;;;;15.00;8.73;;;;;;;21.88;100.00;98502.41;5110619;28;20179;-57
2023/09/25 06:54:55;;;;;;;8.93;8.02;;;;;;;21.85;100.00;98477.22;5110854;28;20701;-57
2023/09/25 06:57:20;;;;;;;10.55;8.10;;;;;;;22.24;100.00;98514.84;5110812;28;20258;-57
2023/09/25 06:59:46;;;;;;;14.45;8.02;;;;;;;22.16;100.00;98479.81;5110543;28;20254;-57
2023/09/25 07:02:12;;;;;;;10.10;7.50;;;;;;;22.29;100.00;98511.69;5110984;28;20545;-57
2023/09/25 07:04:37;;;;;;;8.82;7.90;;;;;;;22.32;100.00;98491.06;5067590;28;20185;-57
2023/09/25 07:07:03;;;;;;;8.32;6.85;;;;;;;22.37;100.00;98509.00;5067663;28;20578;-57
2023/09/25 07:09:28;;;;;;;13.10;7.60;;;;;;;22.25;100.00;98486.69;5067529;28;20650;-58
2023/09/25 07:11:54;;;;;;;7.95;7.15;;;;;;;22.38;100.00;98516.72;5068726;28;20271;-57
2023/09/25 07:14:19;;;;;;;10.48;7.00;;;;;;;22.45;100.00;98501.06;5071212;28;20693;-57
2023/09/25 07:16:45;;;;;;;6.97;6.28;;;;;;;22.50;100.00;98509.25;5071329;28;20263;-58
2023/09/25 07:19:12;;;;;;;10.07;6.35;;;;;;;22.43;100.00;98503.88;5071142;28;20200;-57
2023/09/25 07:21:38;;;;;;;8.98;6.05;;;;;;;22.51;100.00;98510.91;5071311;28;20234;-57
2023/09/25 07:24:04;;;;;;;8.95;7.32;;;;;;;22.49;100.00;98494.44;5071088;28;20556;-57
2023/09/25 07:26:30;;;;;;;10.63;5.88;;;;;;;22.71;100.00;98518.13;5071114;28;20629;-57
2023/09/25 07:28:56;;;;;;;6.45;5.82;;;;;;;22.42;100.00;98494.28;5071085;28;20204;-57
2023/09/25 07:31:22;;;;;;;7.00;5.88;;;;;;;22.58;100.00;98517.94;5071071;28;20630;-57
2023/09/25 07:33:49;;;;;;;7.70;6.35;;;;;;;22.69;100.00;98520.16;5071028;28;20212;-57
2023/09/25 07:36:20;;;;;;;6.20;5.60;;;;;;;22.88;100.00;98532.00;5104018;28;20210;-57
2023/09/25 07:38:49;;;;;;;8.27;5.97;;;;;;;22.58;100.00;98499.47;5114136;28;20225;-57
2023/09/25 07:41:14;;;;;;;8.88;5.72;;;;;;;22.89;100.00;98537.09;5113942;28;20648;-57
2023/09/25 07:43:40;;;;;;;10.05;6.18;;;;;;;22.75;100.00;98515.97;5113974;28;20171;-57
2023/09/25 07:46:06;;;;;;;9.77;6.05;;;;;;;22.82;100.00;98514.25;5113785;28;20210;-57
2023/09/25 07:48:32;;;;;;;9.82;6.55;;;;;;;22.99;100.00;98534.19;5113775;28;20175;-57
2023/09/25 07:50:58;;;;;;;7.32;6.63;;;;;;;23.21;100.00;98544.75;5113741;28;20552;-57
2023/09/25 07:53:25;;;;;;;6.85;6.20;;;;;;;23.19;100.00;98543.28;5113604;28;20637;-57
2023/09/25 07:55:51;;;;;;;6.93;6.28;;;;;;;23.14;100.00;98537.69;5113755;28;20175;-57
2023/09/25 07:58:17;;;;;;;11.15;7.22;;;;;;;23.08;100.00;98543.69;5113532;28;20191;-57
2023/09/25 08:00:44;;;;;;;11.75;7.07;;;;;;;23.02;100.00;98504.81;5070294;28;20193;-57
2023/09/25 08:03:14;;;;;;;10.98;6.75;;;;;;;23.35;100.00;98516.69;5070336;28;20192;-58
2023/09/25 08:05:40;;;;;;;9.52;5.57;;;;;;;23.42;100.00;98507.84;5070505;28;20216;-57
2023/09/25 08:08:06;;;;;;;10.82;7.03;;;;;;;23.58;99.18;98496.28;5070173;28;20248;-57
2023/09/25 08:10:33;;;;;;;9.52;7.03;;;;;;;23.63;97.48;98506.09;5070365;28;20220;-58
2023/09/25 08:12:59;;;;;;;7.88;6.95;;;;;;;23.67;97.90;98525.88;5070066;28;20666;-57
2023/09/25 08:15:24;;;;;;;13.15;7.22;;;;;;;23.75;97.15;98515.19;5070197;28;20276;-58
2023/09/25 08:17:50;;;;;;;7.50;6.50;;;;;;;23.83;94.55;98501.88;5070226;28;20698;-58
2023/09/25 08:20:22;;;;;;;9.35;6.85;;;;;;;23.98;93.43;98503.69;5070125;28;20186;-58
2023/09/25 08:22:51;;;;;;;10.20;7.45;;;;;;;23.98;93.30;98497.38;5069982;28;20642;-58
2023/09/25 08:25:17;;;;;;;9.02;7.55;;;;;;;24.08;91.81;98508.50;5070048;28;20231;-57
2023/09/25 08:27:43;;;;;;;12.48;7.70;;;;;;;24.06;90.43;98501.75;5069877;28;20249;-58
2023/09/25 08:30:11;;;;;;;9.80;8.40;;;;;;;24.08;90.92;98503.19;5069901;28;20180;-58
2023/09/25 08:32:37;;;;;;;10.27;7.47;;;;;;;24.28;90.85;98520.09;5107495;28;20187;-58
2023/09/25 08:35:03;;;;;;;9.68;7.82;;;;;;;24.41;89.58;98522.88;5112945;28;20262;-58
2023/09/25 08:37:29;;;;;;;9.60;7.32;;;;;;;24.66;87.80;98534.72;5112830;28;20521;-58
2023/09/25 08:39:56;;;;;;;9.63;7.40;;;;;;;24.84;86.31;98536.94;5112759;28;20235;-58
2023/09/25 08:42:24;;;;;;;11.80;9.73;;;;;;;24.92;83.65;98531.47;5112733;28;20240;-58
2023/09/25 08:44:56;;;;;;;14.18;8.68;;;;;;;24.83;83.19;98536.09;5112780;28;20183;-58
2023/09/25 08:47:22;;;;;;;11.60;8.55;;;;;;;24.73;84.00;98532.16;5112651;28;20199;-58
2023/09/25 08:49:49;;;;;;;9.80;8.77;;;;;;;24.82;83.97;98539.75;5112726;28;20178;-58
2023/09/25 08:52:16;;;;;;;9.73;8.82;;;;;;;24.68;83.78;98532.69;5112584;28;20265;-58
2023/09/25 08:54:41;;;;;;;12.40;9.18;;;;;;;24.65;84.97;98535.75;5112509;28;20175;-58
2023/09/25 08:57:07;;;;;;;11.07;10.02;;;;;;;24.54;84.57;98530.09;5112535;28;20187;-58
2023/09/25 08:59:36;;;;;;;11.88;9.95;;;;;;;24.36;84.90;98519.13;5112476;28;20186;-58
2023/09/25 09:02:01;;;;;;;12.48;10.07;;;;;;;24.51;84.60;98533.13;5069120;28;20591;-57
2023/09/25 09:04:27;;;;;;;10.75;9.23;;;;;;;24.57;84.38;98516.53;5069228;28;20196;-57
2023/09/25 09:06:52;;;;;;;10.40;9.15;;;;;;;24.66;83.36;98515.41;5069155;28;20244;-57
2023/09/25 09:09:18;;;;;;;13.70;9.13;;;;;;;24.65;84.56;98493.41;5069203;28;20636;-58
2023/09/25 09:11:52;;;;;;;10.02;8.30;;;;;;;24.77;84.61;98528.94;5069207;28;20314;-57
2023/09/25 09:14:39;;;;;;;17.65;8.65;;;;;;;24.83;84.73;98530.81;5069004;28;20326;-58
2023/09/25 09:17:06;;;;;;;11.93;8.35;;;;;;;24.65;83.51;98514.56;5068959;28;20188;-58
2023/09/25 09:19:47;;;;;;;12.43;8.80;;;;;;;24.58;84.33;98519.00;5069326;28;20580;-58
2023/09/25 09:22:16;;;;;;;12.13;8.85;;;;;;;24.64;84.40;98523.53;5068744;28;20683;-58
2023/09/25 09:24:43;;;;;;;12.93;9.15;;;;;;;24.68;84.59;98513.38;5068817;28;20197;-57
2023/09/25 09:27:08;;;;;;;15.32;8.95;;;;;;;24.59;84.42;98488.88;5068599;28;20616;-58
2023/09/25 09:29:38;;;;;;;9.85;8.95;;;;;;;24.90;85.73;98505.19;5068722;28;20180;-58
2023/09/25 09:32:05;;;;;;;10.68;9.30;;;;;;;25.10;82.37;98518.56;5070793;28;20297;-57
2023/09/25 09:34:31;;;;;;;14.57;10.88;;;;;;;24.99;80.60;98484.69;5088473;28;20259;-57
2023/09/25 09:36:57;;;;;;;12.38;9.98;;;;;;;25.20;79.93;98493.38;5088991;28;20198;-58
2023/09/25 09:39:25;;;;;;;12.55;11.02;;;;;;;25.26;78.65;98489.16;5088843;28;20570;-58
2023/09/25 09:41:52;;;;;;;17.15;10.75;;;;;;;25.39;77.67;98513.09;5088894;28;20191;-58
2023/09/25 09:44:19;;;;;;;12.48;10.43;;;;;;;25.22;77.16;98517.03;5088883;28;20233;-58
2023/09/25 09:46:46;;;;;;;13.93;11.25;;;;;;;25.02;78.01;98506.28;5088758;28;20206;-58
2023/09/25 09:49:15;;;;;;;13.25;11.15;;;;;;;24.79;78.72;98471.31;5088628;28;20188;-58
2023/09/25 09:51:44;;;;;;;14.77;11.50;;;;;;;24.92;79.27;98487.31;5088703;28;20176;-58
2023/09/25 09:54:12;;;;;;;16.27;11.68;;;;;;;25.02;77.74;98511.59;5108868;28;20278;-58
2023/09/25 09:56:38;;;;;;;13.48;11.95;;;;;;;24.95;78.99;98508.09;5111524;28;20171;-57
2023/09/25 09:59:04;;;;;;;13.20;11.88;;;;;;;25.06;78.36;98496.97;5111190;28;20649;-58
2023/09/25 10:01:32;;;;;;;14.82;12.40;;;;;;;25.26;77.33;98489.97;5111357;28;20225;-58
2023/09/25 10:03:57;;;;;;;14.40;11.27;;;;;;;25.33;75.69;98482.91;5111336;28;20178;-58
2023/09/25 10:06:25;;;;;;;12.13;10.85;;;;;;;25.60;74.20;98500.53;5111257;28;20195;-56
2023/09/25 10:09:10;;;;;;;14.65;11.05;;;;;;;25.71;72.37;98485.94;5111280;28;20232;-57
2023/09/25 10:11:36;;;;;;;11.10;10.00;;;;;;;25.90;71.40;98499.25;5111053;28;20182;-57
2023/09/25 10:14:08;;;;;;;13.15;11.85;;;;;;;25.96;72.27;98497.66;5111331;28;20570;-57
2023/09/25 10:17:05;;;;;;;17.15;11.23;;;;;;;26.09;71.71;98490.56;5111323;28;20171;-57
2023/09/25 10:19:36;;;;;;;21.73;11.73;;;;;;;25.94;71.11;98458.06;5110935;28;20171;-58
2023/09/25 10:22:23;;;;;;;15.57;10.20;;;;;;;25.91;71.31;98470.91;5111174;28;20175;-58
2023/09/25 10:25:09;;;;;;;15.63;10.75;;;;;;;26.09;70.98;98482.59;5111199;28;20263;-58
2023/09/25 10:27:36;;;;;;;14.18;10.35;;;;;;;26.21;71.12;98483.66;5111172;28;20209;-58
2023/09/25 10:30:07;;;;;;;16.67;10.13;;;;;;;26.25;69.11;98454.88;5111113;28;20171;-58
2023/09/25 10:32:36;;;;;;;11.18;8.52;;;;;;;26.35;67.66;98466.72;5067988;28;20189;-58
2023/09/25 10:35:42;;;;;;;12.05;8.85;;;;;;;26.71;67.23;98484.94;5068020;28;20191;-58
2023/09/25 10:38:21;;;;;;;11.40;8.45;;;;;;;26.80;66.98;98481.03;4988910;28;20193;-58
2023/09/25 10:40:52;;;;;;;20.98;7.97;;;;;;;26.65;64.63;98459.22;4988817;28;20187;-58
2023/09/25 10:43:22;;;;;;;9.23;7.00;;;;;;;26.51;65.44;98463.66;4988863;28;20195;-58
2023/09/25 10:45:49;;;;;;;9.00;7.15;;;;;;;26.35;66.27;98445.47;4988772;28;20191;-58
2023/09/25 10:48:16;;;;;;;11.18;7.50;;;;;;;26.49;65.28;98444.47;4991936;28;20191;-58
2023/09/25 10:50:43;;;;;;;9.25;7.30;;;;;;;26.47;66.37;98440.41;4992713;28;20237;-58
2023/09/25 10:53:13;;;;;;;10.88;7.10;;;;;;;26.91;66.98;98481.25;4992469;28;20709;-58
2023/09/25 10:55:39;;;;;;;8.30;6.55;;;;;;;27.08;64.15;98455.06;4992566;28;20657;-58
2023/09/25 10:58:06;;;;;;;9.15;6.50;;;;;;;26.95;63.52;98477.13;4992536;28;20210;-58
2023/09/25 11:00:34;;;;;;;7.07;6.15;;;;;;;26.75;64.44;98425.91;4992442;28;20274;-58
2023/09/25 11:03:00;;;;;;;6.95;5.63;;;;;;;26.89;64.27;98459.38;5003056;28;20817;-58
2023/09/25 11:05:25;;;;;;;8.82;6.35;;;;;;;26.72;64.72;98434.28;5031757;28;20272;-58
2023/09/25 11:07:52;;;;;;;9.77;6.20;;;;;;;26.66;65.23;98436.94;5031592;28;20240;-58
2023/09/25 11:10:17;;;;;;;8.80;6.38;;;;;;;26.66;65.61;98461.63;5031562;28;20186;-58
2023/09/25 11:12:47;;;;;;;5.95;5.43;;;;;;;26.46;66.72;98436.91;5031370;28;20200;-58
2023/09/25 11:15:20;;;;;;;9.38;6.43;;;;;;;26.40;67.24;98421.81;5084335;28;20653;-58